sensor_id;sensor_type;location;lat;lon;timestamp;P1;durP1;ratioP1;P2;durP2;ratioP2
43042;SDS011;28667;50.758;6.096;2022-09-12T00:00:39;6.03;;;3.00;;
43042;SDS011;28667;50.758;6.096;2022-09-12T00:03:06;4.80;;;3.13;;
43042;SDS011;28667;50.758;6.096;2022-09-12T00:05:32;3.80;;;2.58;;
43042;SDS011;28667;50.758;6.096;2022-09-12T00:07:59;5.35;;;3.80;;
43042;SDS011;28667;50.758;6.096;2022-09-12T00:10:26;6.32;;;3.45;;
43042;SDS011;28667;50.758;6.096;2022-09-12T00:12:52;4.68;;;3.15;;
43042;SDS011;28667;50.758;6.096;2022-09-12T00:15:18;4.95;;;3.50;;
43042;SDS011;28667;50.758;6.096;2022-09-12T00:17:44;3.72;;;3.20;;
43042;SDS011;28667;50.758;6.096;2022-09-12T00:20:10;7.30;;;3.72;;
43042;SDS011;28667;50.758;6.096;2022-09-12T00:22:36;6.53;;;3.70;;
43042;SDS011;28667;50.758;6.096;2022-09-12T00:25:02;6.95;;;3.60;;
43042;SDS011;28667;50.758;6.096;2022-09-12T00:27:30;6.25;;;4.00;;
43042;SDS011;28667;50.758;6.096;2022-09-12T00:29:56;3.97;;;3.53;;
43042;SDS011;28667;50.758;6.096;2022-09-12T00:32:21;4.70;;;3.92;;
43042;SDS011;28667;50.758;6.096;2022-09-12T00:34:48;4.40;;;3.67;;
43042;SDS011;28667;50.758;6.096;2022-09-12T00:37:14;5.72;;;3.67;;
43042;SDS011;28667;50.758;6.096;2022-09-12T00:39:40;5.95;;;4.22;;
43042;SDS011;28667;50.758;6.096;2022-09-12T00:42:08;5.55;;;4.22;;
43042;SDS011;28667;50.758;6.096;2022-09-12T00:44:42;6.03;;;4.43;;
43042;SDS011;28667;50.758;6.096;2022-09-12T00:47:15;6.53;;;4.13;;
43042;SDS011;28667;50.758;6.096;2022-09-12T00:49:53;7.05;;;3.88;;
43042;SDS011;28667;50.758;6.096;2022-09-12T00:52:28;5.65;;;3.55;;
43042;SDS011;28667;50.758;6.096;2022-09-12T00:54:58;9.32;;;4.65;;
43042;SDS011;28667;50.758;6.096;2022-09-12T00:58:10;8.07;;;4.75;;
43042;SDS011;28667;50.758;6.096;2022-09-12T01:00:20;7.15;;;4.93;;
43042;SDS011;28667;50.758;6.096;2022-09-12T01:02:49;9.18;;;5.07;;
43042;SDS011;28667;50.758;6.096;2022-09-12T01:05:20;6.40;;;4.78;;
43042;SDS011;28667;50.758;6.096;2022-09-12T01:07:47;6.60;;;4.47;;
43042;SDS011;28667;50.758;6.096;2022-09-12T01:10:16;5.05;;;4.55;;
43042;SDS011;28667;50.758;6.096;2022-09-12T01:12:43;7.15;;;4.63;;
43042;SDS011;28667;50.758;6.096;2022-09-12T01:15:10;8.02;;;4.75;;
43042;SDS011;28667;50.758;6.096;2022-09-12T01:26:26;6.50;;;4.80;;
43042;SDS011;28667;50.758;6.096;2022-09-12T01:34:57;8.15;;;5.32;;
43042;SDS011;28667;50.758;6.096;2022-09-12T01:37:58;10.20;;;5.50;;
43042;SDS011;28667;50.758;6.096;2022-09-12T01:49:11;9.75;;;5.47;;
43042;SDS011;28667;50.758;6.096;2022-09-12T01:54:26;11.88;;;6.50;;
43042;SDS011;28667;50.758;6.096;2022-09-12T01:57:00;12.82;;;6.82;;
43042;SDS011;28667;50.758;6.096;2022-09-12T01:59:35;12.13;;;6.53;;
43042;SDS011;28667;50.758;6.096;2022-09-12T02:04:35;11.43;;;6.70;;
43042;SDS011;28667;50.758;6.096;2022-09-12T02:07:10;14.50;;;6.63;;
43042;SDS011;28667;50.758;6.096;2022-09-12T02:09:48;14.00;;;5.90;;
43042;SDS011;28667;50.758;6.096;2022-09-12T02:12:25;10.35;;;6.53;;
43042;SDS011;28667;50.758;6.096;2022-09-12T02:15:02;9.57;;;5.57;;
43042;SDS011;28667;50.758;6.096;2022-09-12T02:17:34;8.63;;;5.40;;
43042;SDS011;28667;50.758;6.096;2022-09-12T02:20:05;10.10;;;5.78;;
43042;SDS011;28667;50.758;6.096;2022-09-12T02:22:36;15.95;;;6.93;;
43042;SDS011;28667;50.758;6.096;2022-09-12T02:25:04;13.48;;;7.07;;
43042;SDS011;28667;50.758;6.096;2022-09-12T02:27:33;17.80;;;7.40;;
43042;SDS011;28667;50.758;6.096;2022-09-12T02:30:05;14.43;;;7.68;;
43042;SDS011;28667;50.758;6.096;2022-09-12T02:35:30;12.77;;;6.90;;
43042;SDS011;28667;50.758;6.096;2022-09-12T02:40:45;15.95;;;7.38;;
43042;SDS011;28667;50.758;6.096;2022-09-12T02:43:11;10.85;;;6.18;;
43042;SDS011;28667;50.758;6.096;2022-09-12T02:45:38;15.18;;;7.13;;
43042;SDS011;28667;50.758;6.096;2022-09-12T02:50:45;15.90;;;6.88;;
43042;SDS011;28667;50.758;6.096;2022-09-12T02:53:11;10.82;;;6.65;;
43042;SDS011;28667;50.758;6.096;2022-09-12T02:55:39;10.85;;;6.22;;
43042;SDS011;28667;50.758;6.096;2022-09-12T02:58:08;9.95;;;6.78;;
43042;SDS011;28667;50.758;6.096;2022-09-12T03:00:53;12.98;;;6.72;;
43042;SDS011;28667;50.758;6.096;2022-09-12T03:09:41;13.55;;;6.05;;
43042;SDS011;28667;50.758;6.096;2022-09-12T03:23:03;19.02;;;6.85;;
43042;SDS011;28667;50.758;6.096;2022-09-12T03:25:35;10.75;;;6.03;;
43042;SDS011;28667;50.758;6.096;2022-09-12T03:28:04;13.75;;;7.03;;
43042;SDS011;28667;50.758;6.096;2022-09-12T03:30:37;15.13;;;7.30;;
43042;SDS011;28667;50.758;6.096;2022-09-12T03:33:11;12.10;;;6.68;;
43042;SDS011;28667;50.758;6.096;2022-09-12T03:35:40;10.10;;;6.32;;
43042;SDS011;28667;50.758;6.096;2022-09-12T03:38:06;12.95;;;6.85;;
43042;SDS011;28667;50.758;6.096;2022-09-12T03:40:33;12.13;;;6.95;;
43042;SDS011;28667;50.758;6.096;2022-09-12T03:43:00;11.15;;;6.15;;
43042;SDS011;28667;50.758;6.096;2022-09-12T03:45:27;8.93;;;6.00;;
43042;SDS011;28667;50.758;6.096;2022-09-12T03:47:53;12.52;;;6.60;;
43042;SDS011;28667;50.758;6.096;2022-09-12T03:50:20;10.73;;;6.43;;
43042;SDS011;28667;50.758;6.096;2022-09-12T03:52:46;12.38;;;5.88;;
43042;SDS011;28667;50.758;6.096;2022-09-12T03:55:12;11.15;;;6.18;;
43042;SDS011;28667;50.758;6.096;2022-09-12T03:57:38;11.95;;;5.82;;
43042;SDS011;28667;50.758;6.096;2022-09-12T04:00:05;10.27;;;5.65;;
43042;SDS011;28667;50.758;6.096;2022-09-12T04:02:38;8.50;;;6.03;;
43042;SDS011;28667;50.758;6.096;2022-09-12T04:05:04;10.65;;;6.05;;
43042;SDS011;28667;50.758;6.096;2022-09-12T04:07:30;8.70;;;5.53;;
43042;SDS011;28667;50.758;6.096;2022-09-12T04:09:57;9.73;;;5.43;;
43042;SDS011;28667;50.758;6.096;2022-09-12T04:12:23;11.13;;;6.20;;
43042;SDS011;28667;50.758;6.096;2022-09-12T04:14:49;10.63;;;5.80;;
43042;SDS011;28667;50.758;6.096;2022-09-12T04:17:15;10.07;;;5.65;;
43042;SDS011;28667;50.758;6.096;2022-09-12T04:19:41;10.63;;;5.80;;
43042;SDS011;28667;50.758;6.096;2022-09-12T04:22:07;7.40;;;4.80;;
43042;SDS011;28667;50.758;6.096;2022-09-12T04:24:33;8.73;;;5.53;;
43042;SDS011;28667;50.758;6.096;2022-09-12T04:26:59;10.52;;;5.80;;
43042;SDS011;28667;50.758;6.096;2022-09-12T04:29:25;8.35;;;5.72;;
43042;SDS011;28667;50.758;6.096;2022-09-12T04:31:52;9.85;;;5.22;;
43042;SDS011;28667;50.758;6.096;2022-09-12T04:34:18;11.98;;;6.50;;
43042;SDS011;28667;50.758;6.096;2022-09-12T04:36:44;10.65;;;5.72;;
43042;SDS011;28667;50.758;6.096;2022-09-12T04:39:09;10.63;;;5.40;;
43042;SDS011;28667;50.758;6.096;2022-09-12T04:41:37;9.38;;;5.63;;
43042;SDS011;28667;50.758;6.096;2022-09-12T04:44:07;12.15;;;5.82;;
43042;SDS011;28667;50.758;6.096;2022-09-12T04:46:37;10.75;;;5.63;;
43042;SDS011;28667;50.758;6.096;2022-09-12T04:49:04;9.57;;;5.47;;
43042;SDS011;28667;50.758;6.096;2022-09-12T04:51:32;6.60;;;5.00;;
43042;SDS011;28667;50.758;6.096;2022-09-12T04:54:01;14.32;;;6.68;;
43042;SDS011;28667;50.758;6.096;2022-09-12T04:56:30;9.65;;;5.97;;
43042;SDS011;28667;50.758;6.096;2022-09-12T04:58:57;8.85;;;5.82;;
43042;SDS011;28667;50.758;6.096;2022-09-12T05:01:25;11.73;;;5.75;;
43042;SDS011;28667;50.758;6.096;2022-09-12T05:03:52;14.65;;;5.85;;
43042;SDS011;28667;50.758;6.096;2022-09-12T05:06:21;9.48;;;5.45;;
43042;SDS011;28667;50.758;6.096;2022-09-12T05:08:50;12.63;;;5.88;;
43042;SDS011;28667;50.758;6.096;2022-09-12T05:11:17;9.20;;;5.35;;
43042;SDS011;28667;50.758;6.096;2022-09-12T05:13:45;10.23;;;5.72;;
43042;SDS011;28667;50.758;6.096;2022-09-12T05:16:13;9.63;;;5.75;;
43042;SDS011;28667;50.758;6.096;2022-09-12T05:18:41;9.85;;;5.30;;
43042;SDS011;28667;50.758;6.096;2022-09-12T05:21:10;8.77;;;5.60;;
43042;SDS011;28667;50.758;6.096;2022-09-12T05:23:37;10.10;;;5.63;;
43042;SDS011;28667;50.758;6.096;2022-09-12T05:26:04;10.57;;;5.50;;
43042;SDS011;28667;50.758;6.096;2022-09-12T05:28:33;9.65;;;5.80;;
43042;SDS011;28667;50.758;6.096;2022-09-12T05:33:29;8.93;;;5.10;;
43042;SDS011;28667;50.758;6.096;2022-09-12T05:35:56;8.35;;;5.10;;
43042;SDS011;28667;50.758;6.096;2022-09-12T05:38:23;7.40;;;4.88;;
43042;SDS011;28667;50.758;6.096;2022-09-12T05:41:06;10.77;;;5.30;;
43042;SDS011;28667;50.758;6.096;2022-09-12T05:43:33;10.35;;;4.68;;
43042;SDS011;28667;50.758;6.096;2022-09-12T05:46:00;11.00;;;4.90;;
43042;SDS011;28667;50.758;6.096;2022-09-12T05:48:30;8.48;;;5.28;;
43042;SDS011;28667;50.758;6.096;2022-09-12T05:51:00;6.70;;;4.53;;
43042;SDS011;28667;50.758;6.096;2022-09-12T05:53:35;7.20;;;4.63;;
43042;SDS011;28667;50.758;6.096;2022-09-12T05:58:33;7.75;;;5.00;;
43042;SDS011;28667;50.758;6.096;2022-09-12T06:01:05;7.82;;;5.32;;
43042;SDS011;28667;50.758;6.096;2022-09-12T06:03:33;8.52;;;5.90;;
43042;SDS011;28667;50.758;6.096;2022-09-12T06:06:03;9.75;;;6.15;;
43042;SDS011;28667;50.758;6.096;2022-09-12T06:08:38;10.00;;;5.07;;
43042;SDS011;28667;50.758;6.096;2022-09-12T06:11:06;6.80;;;4.72;;
43042;SDS011;28667;50.758;6.096;2022-09-12T06:13:35;5.38;;;4.38;;
43042;SDS011;28667;50.758;6.096;2022-09-12T06:16:03;6.53;;;3.78;;
43042;SDS011;28667;50.758;6.096;2022-09-12T06:18:30;7.03;;;4.88;;
43042;SDS011;28667;50.758;6.096;2022-09-12T06:20:56;4.85;;;4.00;;
43042;SDS011;28667;50.758;6.096;2022-09-12T06:23:26;4.47;;;3.88;;
43042;SDS011;28667;50.758;6.096;2022-09-12T06:25:52;6.15;;;4.25;;
43042;SDS011;28667;50.758;6.096;2022-09-12T06:28:18;5.55;;;3.88;;
43042;SDS011;28667;50.758;6.096;2022-09-12T06:30:44;6.95;;;4.07;;
43042;SDS011;28667;50.758;6.096;2022-09-12T06:33:10;5.60;;;4.28;;
43042;SDS011;28667;50.758;6.096;2022-09-12T06:35:37;6.28;;;4.22;;
43042;SDS011;28667;50.758;6.096;2022-09-12T06:38:03;6.90;;;3.95;;
43042;SDS011;28667;50.758;6.096;2022-09-12T06:40:30;4.70;;;3.83;;
43042;SDS011;28667;50.758;6.096;2022-09-12T06:42:56;6.50;;;3.72;;
43042;SDS011;28667;50.758;6.096;2022-09-12T06:45:32;5.97;;;4.05;;
43042;SDS011;28667;50.758;6.096;2022-09-12T06:47:57;9.82;;;3.80;;
43042;SDS011;28667;50.758;6.096;2022-09-12T06:50:24;7.25;;;4.03;;
43042;SDS011;28667;50.758;6.096;2022-09-12T06:52:49;4.07;;;3.50;;
43042;SDS011;28667;50.758;6.096;2022-09-12T06:55:16;4.10;;;3.47;;
43042;SDS011;28667;50.758;6.096;2022-09-12T06:57:42;6.70;;;3.50;;
43042;SDS011;28667;50.758;6.096;2022-09-12T07:00:08;3.42;;;2.80;;
43042;SDS011;28667;50.758;6.096;2022-09-12T07:02:35;3.67;;;3.03;;
43042;SDS011;28667;50.758;6.096;2022-09-12T07:05:01;3.03;;;2.58;;
43042;SDS011;28667;50.758;6.096;2022-09-12T07:07:27;3.10;;;2.40;;
43042;SDS011;28667;50.758;6.096;2022-09-12T07:09:56;3.40;;;2.85;;
43042;SDS011;28667;50.758;6.096;2022-09-12T07:12:22;4.72;;;3.00;;
43042;SDS011;28667;50.758;6.096;2022-09-12T07:14:48;3.55;;;2.97;;
43042;SDS011;28667;50.758;6.096;2022-09-12T07:17:14;2.50;;;2.30;;
43042;SDS011;28667;50.758;6.096;2022-09-12T07:19:41;2.55;;;2.35;;
43042;SDS011;28667;50.758;6.096;2022-09-12T07:22:06;4.20;;;2.50;;
43042;SDS011;28667;50.758;6.096;2022-09-12T07:24:33;2.85;;;2.50;;
43042;SDS011;28667;50.758;6.096;2022-09-12T07:26:58;3.40;;;2.85;;
43042;SDS011;28667;50.758;6.096;2022-09-12T07:29:24;2.30;;;2.08;;
43042;SDS011;28667;50.758;6.096;2022-09-12T07:31:50;2.05;;;1.85;;
43042;SDS011;28667;50.758;6.096;2022-09-12T07:34:16;3.20;;;2.55;;
43042;SDS011;28667;50.758;6.096;2022-09-12T07:36:42;3.10;;;2.83;;
43042;SDS011;28667;50.758;6.096;2022-09-12T07:39:08;2.10;;;1.90;;
43042;SDS011;28667;50.758;6.096;2022-09-12T07:41:35;3.33;;;2.03;;
43042;SDS011;28667;50.758;6.096;2022-09-12T07:44:01;3.33;;;2.28;;
43042;SDS011;28667;50.758;6.096;2022-09-12T07:46:28;2.35;;;2.10;;
43042;SDS011;28667;50.758;6.096;2022-09-12T07:48:56;2.80;;;2.50;;
43042;SDS011;28667;50.758;6.096;2022-09-12T07:51:23;3.00;;;2.42;;
43042;SDS011;28667;50.758;6.096;2022-09-12T07:53:51;3.33;;;2.40;;
43042;SDS011;28667;50.758;6.096;2022-09-12T07:56:17;2.40;;;2.20;;
43042;SDS011;28667;50.758;6.096;2022-09-12T07:58:44;2.45;;;2.25;;
43042;SDS011;28667;50.758;6.096;2022-09-12T08:01:12;2.42;;;2.22;;
43042;SDS011;28667;50.758;6.096;2022-09-12T08:03:40;3.58;;;2.03;;
43042;SDS011;28667;50.758;6.096;2022-09-12T08:06:08;2.67;;;2.33;;
43042;SDS011;28667;50.758;6.096;2022-09-12T08:08:35;2.95;;;2.28;;
43042;SDS011;28667;50.758;6.096;2022-09-12T08:11:02;3.45;;;2.85;;
43042;SDS011;28667;50.758;6.096;2022-09-12T08:13:30;2.88;;;2.35;;
43042;SDS011;28667;50.758;6.096;2022-09-12T08:15:58;2.45;;;2.25;;
43042;SDS011;28667;50.758;6.096;2022-09-12T08:18:25;6.13;;;2.40;;
43042;SDS011;28667;50.758;6.096;2022-09-12T08:20:59;3.38;;;2.78;;
43042;SDS011;28667;50.758;6.096;2022-09-12T08:23:30;3.15;;;2.28;;
43042;SDS011;28667;50.758;6.096;2022-09-12T08:25:57;2.53;;;2.33;;
43042;SDS011;28667;50.758;6.096;2022-09-12T08:28:26;2.90;;;2.35;;
43042;SDS011;28667;50.758;6.096;2022-09-12T08:30:52;2.40;;;2.20;;
43042;SDS011;28667;50.758;6.096;2022-09-12T08:33:19;2.58;;;2.20;;
43042;SDS011;28667;50.758;6.096;2022-09-12T08:35:46;2.55;;;2.17;;
43042;SDS011;28667;50.758;6.096;2022-09-12T08:38:12;2.38;;;2.17;;
43042;SDS011;28667;50.758;6.096;2022-09-12T08:46:14;3.25;;;2.47;;
43042;SDS011;28667;50.758;6.096;2022-09-12T08:48:44;2.30;;;2.10;;
43042;SDS011;28667;50.758;6.096;2022-09-12T08:51:15;2.03;;;1.83;;
43042;SDS011;28667;50.758;6.096;2022-09-12T08:53:45;2.00;;;1.80;;
43042;SDS011;28667;50.758;6.096;2022-09-12T08:56:14;2.08;;;1.92;;
43042;SDS011;28667;50.758;6.096;2022-09-12T08:58:42;2.20;;;2.00;;
43042;SDS011;28667;50.758;6.096;2022-09-12T09:01:13;2.33;;;1.67;;
43042;SDS011;28667;50.758;6.096;2022-09-12T09:04:05;2.08;;;1.92;;
43042;SDS011;28667;50.758;6.096;2022-09-12T09:22:51;1.85;;;1.75;;
43042;SDS011;28667;50.758;6.096;2022-09-12T09:25:34;2.55;;;1.80;;
43042;SDS011;28667;50.758;6.096;2022-09-12T09:30:57;4.45;;;1.88;;
43042;SDS011;28667;50.758;6.096;2022-09-12T09:33:24;1.80;;;1.70;;
43042;SDS011;28667;50.758;6.096;2022-09-12T09:35:54;4.60;;;1.70;;
43042;SDS011;28667;50.758;6.096;2022-09-12T09:38:41;1.98;;;1.88;;
43042;SDS011;28667;50.758;6.096;2022-09-12T09:43:56;1.70;;;1.60;;
43042;SDS011;28667;50.758;6.096;2022-09-12T09:46:22;3.70;;;2.03;;
43042;SDS011;28667;50.758;6.096;2022-09-12T09:48:49;4.15;;;2.08;;
43042;SDS011;28667;50.758;6.096;2022-09-12T09:51:17;2.58;;;1.92;;
43042;SDS011;28667;50.758;6.096;2022-09-12T09:53:50;2.05;;;1.65;;
43042;SDS011;28667;50.758;6.096;2022-09-12T09:56:36;1.90;;;1.58;;
43042;SDS011;28667;50.758;6.096;2022-09-12T10:01:43;1.70;;;1.60;;
43042;SDS011;28667;50.758;6.096;2022-09-12T10:04:20;1.60;;;1.50;;
43042;SDS011;28667;50.758;6.096;2022-09-12T10:06:52;2.50;;;1.58;;
43042;SDS011;28667;50.758;6.096;2022-09-12T10:09:22;2.53;;;1.17;;
43042;SDS011;28667;50.758;6.096;2022-09-12T10:11:57;1.20;;;1.10;;
43042;SDS011;28667;50.758;6.096;2022-09-12T10:22:54;2.83;;;1.77;;
43042;SDS011;28667;50.758;6.096;2022-09-12T10:25:21;1.45;;;1.20;;
43042;SDS011;28667;50.758;6.096;2022-09-12T10:27:53;1.77;;;1.48;;
43042;SDS011;28667;50.758;6.096;2022-09-12T10:30:22;2.25;;;1.30;;
43042;SDS011;28667;50.758;6.096;2022-09-12T10:32:55;2.15;;;1.02;;
43042;SDS011;28667;50.758;6.096;2022-09-12T10:35:29;0.82;;;0.82;;
43042;SDS011;28667;50.758;6.096;2022-09-12T10:38:24;2.65;;;0.80;;
43042;SDS011;28667;50.758;6.096;2022-09-12T10:43:33;1.30;;;1.20;;
43042;SDS011;28667;50.758;6.096;2022-09-12T10:48:40;2.28;;;1.23;;
43042;SDS011;28667;50.758;6.096;2022-09-12T10:53:48;0.80;;;0.80;;
43042;SDS011;28667;50.758;6.096;2022-09-12T10:56:30;1.27;;;1.08;;
43042;SDS011;28667;50.758;6.096;2022-09-12T10:59:21;1.08;;;0.93;;
43042;SDS011;28667;50.758;6.096;2022-09-12T11:01:59;0.95;;;0.95;;
43042;SDS011;28667;50.758;6.096;2022-09-12T11:12:55;1.65;;;0.98;;
43042;SDS011;28667;50.758;6.096;2022-09-12T11:23:22;0.95;;;0.88;;
43042;SDS011;28667;50.758;6.096;2022-09-12T11:34:09;0.70;;;0.70;;
43042;SDS011;28667;50.758;6.096;2022-09-12T11:39:16;1.45;;;0.77;;
43042;SDS011;28667;50.758;6.096;2022-09-12T11:41:57;0.63;;;0.63;;
43042;SDS011;28667;50.758;6.096;2022-09-12T11:46:58;0.93;;;0.80;;
43042;SDS011;28667;50.758;6.096;2022-09-12T11:49:35;0.90;;;0.90;;
43042;SDS011;28667;50.758;6.096;2022-09-12T11:57:51;0.80;;;0.70;;
43042;SDS011;28667;50.758;6.096;2022-09-12T12:03:13;0.70;;;0.65;;
43042;SDS011;28667;50.758;6.096;2022-09-12T12:05:51;0.70;;;0.65;;
43042;SDS011;28667;50.758;6.096;2022-09-12T12:08:29;0.70;;;0.70;;
43042;SDS011;28667;50.758;6.096;2022-09-12T12:11:03;1.15;;;0.90;;
43042;SDS011;28667;50.758;6.096;2022-09-12T12:16:20;0.57;;;0.57;;
43042;SDS011;28667;50.758;6.096;2022-09-12T12:18:59;0.68;;;0.60;;
43042;SDS011;28667;50.758;6.096;2022-09-12T12:29:08;1.95;;;1.33;;
43042;SDS011;28667;50.758;6.096;2022-09-12T12:32:26;0.77;;;0.60;;
43042;SDS011;28667;50.758;6.096;2022-09-12T12:36:53;1.85;;;0.85;;
43042;SDS011;28667;50.758;6.096;2022-09-12T12:42:01;0.82;;;0.82;;
43042;SDS011;28667;50.758;6.096;2022-09-12T12:47:20;1.10;;;0.70;;
43042;SDS011;28667;50.758;6.096;2022-09-12T12:50:35;0.80;;;0.80;;
43042;SDS011;28667;50.758;6.096;2022-09-12T12:52:45;0.98;;;0.90;;
43042;SDS011;28667;50.758;6.096;2022-09-12T12:58:00;1.08;;;1.00;;
43042;SDS011;28667;50.758;6.096;2022-09-12T13:00:32;1.05;;;0.85;;
43042;SDS011;28667;50.758;6.096;2022-09-12T13:08:38;0.77;;;0.77;;
43042;SDS011;28667;50.758;6.096;2022-09-12T13:13:44;1.17;;;1.08;;
43042;SDS011;28667;50.758;6.096;2022-09-12T13:16:39;0.68;;;0.68;;
43042;SDS011;28667;50.758;6.096;2022-09-12T13:19:20;0.80;;;0.80;;
43042;SDS011;28667;50.758;6.096;2022-09-12T13:24:25;0.63;;;0.63;;
43042;SDS011;28667;50.758;6.096;2022-09-12T13:26:52;0.90;;;0.73;;
43042;SDS011;28667;50.758;6.096;2022-09-12T13:29:19;0.70;;;0.70;;
43042;SDS011;28667;50.758;6.096;2022-09-12T13:31:51;0.50;;;0.50;;
43042;SDS011;28667;50.758;6.096;2022-09-12T13:34:19;0.63;;;0.60;;
43042;SDS011;28667;50.758;6.096;2022-09-12T13:36:56;0.50;;;0.50;;
43042;SDS011;28667;50.758;6.096;2022-09-12T13:39:36;8.02;;;1.08;;
43042;SDS011;28667;50.758;6.096;2022-09-12T13:45:12;0.80;;;0.80;;
43042;SDS011;28667;50.758;6.096;2022-09-12T13:47:47;0.85;;;0.70;;
43042;SDS011;28667;50.758;6.096;2022-09-12T13:52:47;0.95;;;0.57;;
43042;SDS011;28667;50.758;6.096;2022-09-12T13:55:24;0.50;;;0.50;;
43042;SDS011;28667;50.758;6.096;2022-09-12T13:57:57;1.25;;;0.82;;
43042;SDS011;28667;50.758;6.096;2022-09-12T14:00:29;0.80;;;0.80;;
43042;SDS011;28667;50.758;6.096;2022-09-12T14:02:58;0.70;;;0.70;;
43042;SDS011;28667;50.758;6.096;2022-09-12T14:05:44;0.80;;;0.80;;
43042;SDS011;28667;50.758;6.096;2022-09-12T14:08:19;0.55;;;0.55;;
43042;SDS011;28667;50.758;6.096;2022-09-12T14:10:48;0.68;;;0.68;;
43042;SDS011;28667;50.758;6.096;2022-09-12T14:13:16;0.80;;;0.80;;
43042;SDS011;28667;50.758;6.096;2022-09-12T14:15:51;0.88;;;0.88;;
43042;SDS011;28667;50.758;6.096;2022-09-12T14:18:24;0.70;;;0.70;;
43042;SDS011;28667;50.758;6.096;2022-09-12T14:20:58;0.70;;;0.70;;
43042;SDS011;28667;50.758;6.096;2022-09-12T14:23:35;3.72;;;0.98;;
43042;SDS011;28667;50.758;6.096;2022-09-12T14:26:07;0.52;;;0.52;;
43042;SDS011;28667;50.758;6.096;2022-09-12T14:28:38;1.88;;;0.80;;
43042;SDS011;28667;50.758;6.096;2022-09-12T14:31:19;0.88;;;0.73;;
43042;SDS011;28667;50.758;6.096;2022-09-12T14:33:48;0.73;;;0.70;;
43042;SDS011;28667;50.758;6.096;2022-09-12T14:38:48;0.80;;;0.80;;
43042;SDS011;28667;50.758;6.096;2022-09-12T14:41:36;0.85;;;0.85;;
43042;SDS011;28667;50.758;6.096;2022-09-12T14:44:05;0.68;;;0.68;;
43042;SDS011;28667;50.758;6.096;2022-09-12T14:46:40;1.83;;;0.60;;
43042;SDS011;28667;50.758;6.096;2022-09-12T14:54:38;1.50;;;0.80;;
43042;SDS011;28667;50.758;6.096;2022-09-12T15:02:35;0.80;;;0.80;;
43042;SDS011;28667;50.758;6.096;2022-09-12T15:10:05;5.03;;;1.58;;
43042;SDS011;28667;50.758;6.096;2022-09-12T15:12:43;0.52;;;0.52;;
43042;SDS011;28667;50.758;6.096;2022-09-12T15:15:13;0.60;;;0.60;;
43042;SDS011;28667;50.758;6.096;2022-09-12T15:17:41;0.95;;;0.73;;
43042;SDS011;28667;50.758;6.096;2022-09-12T15:20:08;0.75;;;0.70;;
43042;SDS011;28667;50.758;6.096;2022-09-12T15:22:35;0.50;;;0.50;;
43042;SDS011;28667;50.758;6.096;2022-09-12T15:25:03;0.70;;;0.70;;
43042;SDS011;28667;50.758;6.096;2022-09-12T15:27:30;0.70;;;0.70;;
43042;SDS011;28667;50.758;6.096;2022-09-12T15:29:57;0.50;;;0.50;;
43042;SDS011;28667;50.758;6.096;2022-09-12T15:32:27;0.70;;;0.70;;
43042;SDS011;28667;50.758;6.096;2022-09-12T15:34:54;0.60;;;0.50;;
43042;SDS011;28667;50.758;6.096;2022-09-12T15:37:21;1.55;;;0.52;;
43042;SDS011;28667;50.758;6.096;2022-09-12T15:39:48;0.57;;;0.50;;
43042;SDS011;28667;50.758;6.096;2022-09-12T15:42:16;0.52;;;0.50;;
43042;SDS011;28667;50.758;6.096;2022-09-12T15:44:48;0.50;;;0.50;;
43042;SDS011;28667;50.758;6.096;2022-09-12T15:47:14;0.63;;;0.63;;
43042;SDS011;28667;50.758;6.096;2022-09-12T15:49:40;0.70;;;0.70;;
43042;SDS011;28667;50.758;6.096;2022-09-12T15:52:08;0.70;;;0.40;;
43042;SDS011;28667;50.758;6.096;2022-09-12T15:54:39;0.60;;;0.60;;
43042;SDS011;28667;50.758;6.096;2022-09-12T15:57:06;0.63;;;0.40;;
43042;SDS011;28667;50.758;6.096;2022-09-12T15:59:32;0.60;;;0.50;;
43042;SDS011;28667;50.758;6.096;2022-09-12T16:01:58;1.05;;;0.65;;
43042;SDS011;28667;50.758;6.096;2022-09-12T16:04:26;0.47;;;0.40;;
43042;SDS011;28667;50.758;6.096;2022-09-12T16:06:54;0.50;;;0.50;;
43042;SDS011;28667;50.758;6.096;2022-09-12T16:09:21;1.42;;;0.60;;
43042;SDS011;28667;50.758;6.096;2022-09-12T16:11:48;2.83;;;0.70;;
43042;SDS011;28667;50.758;6.096;2022-09-12T16:14:17;0.77;;;0.60;;
43042;SDS011;28667;50.758;6.096;2022-09-12T16:16:43;1.50;;;0.60;;
43042;SDS011;28667;50.758;6.096;2022-09-12T16:19:17;0.80;;;0.80;;
43042;SDS011;28667;50.758;6.096;2022-09-12T16:21:43;2.15;;;0.70;;
43042;SDS011;28667;50.758;6.096;2022-09-12T16:24:10;1.35;;;0.70;;
43042;SDS011;28667;50.758;6.096;2022-09-12T16:26:36;0.80;;;0.70;;
43042;SDS011;28667;50.758;6.096;2022-09-12T16:29:02;0.60;;;0.60;;
43042;SDS011;28667;50.758;6.096;2022-09-12T16:31:28;0.77;;;0.60;;
43042;SDS011;28667;50.758;6.096;2022-09-12T16:33:55;1.35;;;0.75;;
43042;SDS011;28667;50.758;6.096;2022-09-12T16:36:21;0.80;;;0.80;;
43042;SDS011;28667;50.758;6.096;2022-09-12T16:38:48;0.60;;;0.60;;
43042;SDS011;28667;50.758;6.096;2022-09-12T16:41:17;1.08;;;0.65;;
43042;SDS011;28667;50.758;6.096;2022-09-12T16:43:44;1.77;;;0.80;;
43042;SDS011;28667;50.758;6.096;2022-09-12T16:46:11;4.28;;;0.70;;
43042;SDS011;28667;50.758;6.096;2022-09-12T16:48:41;0.73;;;0.73;;
43042;SDS011;28667;50.758;6.096;2022-09-12T16:51:09;0.50;;;0.50;;
43042;SDS011;28667;50.758;6.096;2022-09-12T16:53:36;0.57;;;0.57;;
43042;SDS011;28667;50.758;6.096;2022-09-12T16:56:03;0.93;;;0.93;;
43042;SDS011;28667;50.758;6.096;2022-09-12T16:58:31;2.90;;;0.80;;
43042;SDS011;28667;50.758;6.096;2022-09-12T17:01:01;0.90;;;0.80;;
43042;SDS011;28667;50.758;6.096;2022-09-12T17:03:29;0.77;;;0.70;;
43042;SDS011;28667;50.758;6.096;2022-09-12T17:05:58;0.77;;;0.77;;
43042;SDS011;28667;50.758;6.096;2022-09-12T17:08:26;1.67;;;0.60;;
43042;SDS011;28667;50.758;6.096;2022-09-12T17:10:58;1.27;;;1.00;;
43042;SDS011;28667;50.758;6.096;2022-09-12T17:13:29;1.02;;;0.70;;
43042;SDS011;28667;50.758;6.096;2022-09-12T17:15:56;0.50;;;0.50;;
43042;SDS011;28667;50.758;6.096;2022-09-12T17:18:22;1.85;;;0.95;;
43042;SDS011;28667;50.758;6.096;2022-09-12T17:20:48;5.57;;;2.15;;
43042;SDS011;28667;50.758;6.096;2022-09-12T17:23:15;1.52;;;0.88;;
43042;SDS011;28667;50.758;6.096;2022-09-12T17:25:47;0.70;;;0.50;;
43042;SDS011;28667;50.758;6.096;2022-09-12T17:28:16;0.70;;;0.70;;
43042;SDS011;28667;50.758;6.096;2022-09-12T17:30:42;1.85;;;0.85;;
43042;SDS011;28667;50.758;6.096;2022-09-12T17:33:09;2.95;;;0.82;;
43042;SDS011;28667;50.758;6.096;2022-09-12T17:35:35;0.75;;;0.70;;
43042;SDS011;28667;50.758;6.096;2022-09-12T17:38:03;1.00;;;0.75;;
43042;SDS011;28667;50.758;6.096;2022-09-12T17:40:30;1.00;;;0.80;;
43042;SDS011;28667;50.758;6.096;2022-09-12T17:42:59;3.15;;;0.95;;
43042;SDS011;28667;50.758;6.096;2022-09-12T17:45:26;0.40;;;0.40;;
43042;SDS011;28667;50.758;6.096;2022-09-12T17:47:55;1.55;;;0.70;;
43042;SDS011;28667;50.758;6.096;2022-09-12T17:50:22;0.68;;;0.68;;
43042;SDS011;28667;50.758;6.096;2022-09-12T17:52:48;3.75;;;1.20;;
43042;SDS011;28667;50.758;6.096;2022-09-12T17:55:14;0.77;;;0.73;;
43042;SDS011;28667;50.758;6.096;2022-09-12T17:57:40;1.48;;;0.88;;
43042;SDS011;28667;50.758;6.096;2022-09-12T18:00:08;8.20;;;1.10;;
43042;SDS011;28667;50.758;6.096;2022-09-12T18:02:37;4.93;;;1.38;;
43042;SDS011;28667;50.758;6.096;2022-09-12T18:05:03;5.43;;;1.13;;
43042;SDS011;28667;50.758;6.096;2022-09-12T18:07:30;8.43;;;1.02;;
43042;SDS011;28667;50.758;6.096;2022-09-12T18:09:57;1.85;;;0.90;;
43042;SDS011;28667;50.758;6.096;2022-09-12T18:12:24;4.70;;;0.82;;
43042;SDS011;28667;50.758;6.096;2022-09-12T18:14:50;4.00;;;1.13;;
43042;SDS011;28667;50.758;6.096;2022-09-12T18:17:16;4.20;;;1.00;;
43042;SDS011;28667;50.758;6.096;2022-09-12T18:19:43;1.42;;;1.02;;